createdAt,value
2019-03-13T00:02:41.760Z,89.1
2019-03-13T00:07:41.954Z,89.4
2019-03-13T00:12:28.500Z,89.6
2019-03-13T00:17:28.632Z,90.0
2019-03-13T00:22:27.621Z,90.1
2019-03-13T00:27:28.898Z,89.9
2019-03-13T00:32:29.056Z,89.6
2019-03-13T00:37:27.908Z,89.5
2019-03-13T00:42:28.037Z,89.6
2019-03-13T00:47:28.177Z,89.6
2019-03-13T00:52:28.280Z,89.6
2019-03-13T00:57:28.051Z,90.0
2019-03-13T01:02:28.167Z,90.0
2019-03-13T01:07:28.511Z,90.0
2019-03-13T01:12:27.770Z,90.0
2019-03-13T01:17:27.799Z,90.2
2019-03-13T01:22:28.280Z,90.4
2019-03-13T01:27:29.665Z,90.4
2019-03-13T01:32:27.828Z,90.4
2019-03-13T01:37:28.010Z,90.9
2019-03-13T01:42:28.396Z,90.5
2019-03-13T01:47:27.726Z,90.6
2019-03-13T01:52:28.062Z,90.9
2019-03-13T01:57:27.594Z,90.8
2019-03-13T02:02:29.342Z,90.9
2019-03-13T02:07:28.028Z,90.9
2019-03-13T02:12:30.082Z,90.8
2019-03-13T02:17:28.238Z,90.8
2019-03-13T02:22:27.910Z,90.6
2019-03-13T02:27:28.132Z,90.4
2019-03-13T02:32:28.268Z,90.5
2019-03-13T02:37:28.025Z,90.5
2019-03-13T02:42:28.436Z,90.2
2019-03-13T02:47:27.642Z,90.0
2019-03-13T02:52:28.162Z,90.4
2019-03-13T02:57:28.107Z,90.4
2019-03-13T03:02:28.623Z,90.4
2019-03-13T03:07:28.038Z,90.9
2019-03-13T03:12:28.723Z,91.1
2019-03-13T03:17:28.789Z,91.2
2019-03-13T03:22:28.173Z,91.1
2019-03-13T03:27:28.624Z,91.5
2019-03-13T03:32:27.973Z,91.8
2019-03-13T03:37:28.685Z,91.5
2019-03-13T03:42:27.981Z,91.7
2019-03-13T03:47:27.763Z,91.7
2019-03-13T03:52:28.337Z,92.2
2019-03-13T03:57:27.828Z,92.2
2019-03-13T04:02:28.010Z,92.2
2019-03-13T04:07:27.695Z,91.7
2019-03-13T04:12:28.056Z,91.6
2019-03-13T04:17:29.148Z,91.5
2019-03-13T04:22:27.848Z,91.5
2019-03-13T04:27:28.856Z,91.5
2019-03-13T04:32:28.824Z,91.4
2019-03-13T04:37:28.095Z,90.9
2019-03-13T04:42:28.624Z,90.9
2019-03-13T04:47:28.628Z,91.2
2019-03-13T04:52:27.796Z,91.0
2019-03-13T04:57:28.062Z,91.2
2019-03-13T05:02:28.211Z,91.2
2019-03-13T05:07:28.048Z,91.4
2019-03-13T05:12:28.865Z,91.6
2019-03-13T05:17:29.035Z,91.6
2019-03-13T05:22:29.690Z,91.7
2019-03-13T05:27:29.169Z,92.2
2019-03-13T05:32:29.314Z,92.0
2019-03-13T05:37:28.817Z,91.8
2019-03-13T05:42:28.475Z,91.9
2019-03-13T05:47:28.702Z,92.2
2019-03-13T05:52:28.479Z,92.2
2019-03-13T05:57:30.460Z,92.3
2019-03-13T06:02:28.340Z,92.4
2019-03-13T06:07:28.133Z,92.3
2019-03-13T06:12:28.236Z,92.2
2019-03-13T06:17:28.789Z,92.1
2019-03-13T06:22:28.853Z,92.0
2019-03-13T06:27:28.877Z,92.0
2019-03-13T06:32:28.476Z,92.3
2019-03-13T06:37:29.318Z,92.0
2019-03-13T06:42:29.525Z,92.0
2019-03-13T06:47:29.356Z,91.8
2019-03-13T06:52:32.054Z,91.7
2019-03-13T06:57:28.743Z,91.7
2019-03-13T07:02:29.359Z,91.8
2019-03-13T07:07:28.470Z,91.6
2019-03-13T07:12:29.790Z,91.3
2019-03-13T07:17:29.502Z,91.6
2019-03-13T07:22:28.716Z,91.4
2019-03-13T07:27:28.715Z,91.3
2019-03-13T07:32:29.088Z,91.1
2019-03-13T07:37:28.734Z,90.8
2019-03-13T07:42:29.162Z,90.4
2019-03-13T07:47:29.949Z,88.8
2019-03-13T07:52:29.070Z,88.0
2019-03-13T07:57:29.002Z,87.6
2019-03-13T08:02:29.143Z,87.4
2019-03-13T08:07:29.117Z,87.0
2019-03-13T08:12:28.065Z,86.7
2019-03-13T08:17:30.276Z,86.1
2019-03-13T08:22:29.333Z,85.6
2019-03-13T08:27:28.618Z,85.6
2019-03-13T08:32:28.627Z,85.2
2019-03-13T08:37:28.716Z,83.6
2019-03-13T08:42:29.350Z,82.4
2019-03-13T08:47:29.184Z,81.3
2019-03-13T08:52:28.005Z,80.3
2019-03-13T08:57:28.733Z,80.3
2019-03-13T09:02:28.652Z,80.5
2019-03-13T09:07:29.586Z,80.2
2019-03-13T09:12:29.524Z,79.5
2019-03-13T09:17:29.921Z,78.8
2019-03-13T09:22:30.733Z,78.5
2019-03-13T09:27:28.569Z,78.3
2019-03-13T09:32:28.036Z,77.8
2019-03-13T09:37:29.489Z,78.0
2019-03-13T09:42:28.145Z,78.1
2019-03-13T09:47:28.610Z,78.3
2019-03-13T09:52:28.258Z,77.5
2019-03-13T09:57:28.436Z,77.6
2019-03-13T10:02:28.518Z,77.6
2019-03-13T10:07:28.992Z,77.4
2019-03-13T10:12:29.027Z,77.0
2019-03-13T10:17:30.078Z,76.6
2019-03-13T10:22:29.007Z,76.8
2019-03-13T10:27:28.201Z,77.3
2019-03-13T10:32:28.335Z,77.2
2019-03-13T10:37:29.808Z,77.3
2019-03-13T10:42:29.052Z,76.8
2019-03-13T10:47:29.119Z,75.9
2019-03-13T10:52:29.106Z,75.4
2019-03-13T10:57:28.204Z,75.5
2019-03-13T11:02:28.380Z,75.7
2019-03-13T11:07:29.509Z,76.1
2019-03-13T11:12:28.413Z,76.2
2019-03-13T11:17:28.997Z,76.6
2019-03-13T11:22:28.818Z,77.0
2019-03-13T11:27:29.326Z,77.2
2019-03-13T11:32:28.783Z,77.0
2019-03-13T11:37:28.998Z,76.6
2019-03-13T11:42:28.606Z,77.0
2019-03-13T11:47:42.918Z,77.0
2019-03-13T11:52:29.099Z,76.7
2019-03-13T11:57:28.788Z,76.4
2019-03-13T12:02:29.038Z,76.1
2019-03-13T12:07:28.883Z,75.8
2019-03-13T12:12:28.760Z,75.1
2019-03-13T12:17:29.230Z,74.4
2019-03-13T12:22:28.799Z,75.2
2019-03-13T12:27:28.816Z,76.6
2019-03-13T12:32:29.076Z,76.5
2019-03-13T12:37:28.908Z,76.8
2019-03-13T12:42:28.890Z,76.7
2019-03-13T12:47:29.785Z,77.0
2019-03-13T12:52:29.499Z,76.8
2019-03-13T12:57:29.332Z,78.2
2019-03-13T13:02:28.502Z,78.6
2019-03-13T13:07:28.965Z,79.7
2019-03-13T13:12:28.833Z,79.2
2019-03-13T13:17:29.316Z,78.8
2019-03-13T13:22:29.008Z,77.1
2019-03-13T13:27:29.776Z,76.6
2019-03-13T13:32:28.271Z,76.5
2019-03-13T13:37:28.828Z,74.4
2019-03-13T13:42:28.628Z,74.5
2019-03-13T13:47:28.828Z,74.4
2019-03-13T13:52:27.744Z,74.0
2019-03-13T13:57:29.376Z,73.8
2019-03-13T14:02:28.774Z,73.0
2019-03-13T14:07:28.586Z,73.7
2019-03-13T14:12:28.694Z,73.8
2019-03-13T14:17:29.312Z,74.0
2019-03-13T14:22:29.456Z,72.8
2019-03-13T14:27:29.033Z,73.1
2019-03-13T14:32:28.957Z,74.1
2019-03-13T14:37:28.569Z,74.1
2019-03-13T14:42:29.185Z,74.1
2019-03-13T14:47:29.432Z,74.6
2019-03-13T14:52:28.542Z,74.2
2019-03-13T14:57:28.772Z,73.1
2019-03-13T15:02:28.088Z,74.1
2019-03-13T15:07:28.331Z,74.8
2019-03-13T15:12:30.178Z,74.5
2019-03-13T15:17:28.271Z,74.7
2019-03-13T15:22:28.684Z,75.2
2019-03-13T15:27:28.407Z,75.7
2019-03-13T15:32:29.040Z,75.8
2019-03-13T15:37:29.096Z,75.8
2019-03-13T15:42:29.015Z,75.4
2019-03-13T15:47:28.772Z,75.6
2019-03-13T15:52:28.904Z,76.1
2019-03-13T15:57:29.300Z,76.0
2019-03-13T16:02:29.016Z,76.2
2019-03-13T16:07:28.904Z,76.1
2019-03-13T16:12:28.249Z,76.1
2019-03-13T16:17:28.468Z,76.1
2019-03-13T16:22:29.052Z,76.2
2019-03-13T16:27:28.600Z,76.1
2019-03-13T16:32:29.902Z,76.3
2019-03-13T16:37:28.211Z,76.4
2019-03-13T16:42:28.039Z,76.0
2019-03-13T16:47:29.672Z,76.2
2019-03-13T16:52:29.124Z,76.1
2019-03-13T16:57:28.331Z,76.5
2019-03-13T17:02:29.143Z,76.7
2019-03-13T17:07:29.008Z,76.8
2019-03-13T17:12:29.218Z,76.9
2019-03-13T17:17:29.303Z,76.8
2019-03-13T17:22:28.624Z,76.9
2019-03-13T17:27:28.713Z,76.9
2019-03-13T17:32:28.757Z,77.0
2019-03-13T17:37:29.024Z,77.0
2019-03-13T17:42:28.422Z,77.0
2019-03-13T17:47:29.450Z,77.0
2019-03-13T17:52:28.646Z,77.0
2019-03-13T17:57:27.746Z,77.0
2019-03-13T18:02:28.024Z,77.0
2019-03-13T18:07:28.139Z,77.1
2019-03-13T18:12:29.235Z,77.8
2019-03-13T18:17:29.264Z,77.3
2019-03-13T18:22:27.949Z,77.2
2019-03-13T18:27:28.839Z,77.2
2019-03-13T18:32:42.221Z,77.1
2019-03-13T18:37:27.783Z,77.2
2019-03-13T18:42:28.662Z,79.0
2019-03-13T18:47:29.346Z,79.0
2019-03-13T18:52:29.030Z,79.2
2019-03-13T18:57:28.814Z,80.1
2019-03-13T19:02:28.365Z,79.9
2019-03-13T19:07:28.178Z,79.9
2019-03-13T19:12:29.242Z,80.0
2019-03-13T19:17:28.190Z,80.2
2019-03-13T19:22:28.956Z,80.2
2019-03-13T19:27:28.531Z,80.0
2019-03-13T19:32:29.274Z,80.1
2019-03-13T19:37:28.403Z,80.1
2019-03-13T19:42:28.094Z,80.3
2019-03-13T19:47:28.278Z,80.2
2019-03-13T19:52:28.650Z,80.1
2019-03-13T19:57:27.435Z,80.1
2019-03-13T20:02:28.450Z,80.0
2019-03-13T20:07:28.209Z,80.1
2019-03-13T20:12:27.994Z,79.8
2019-03-13T20:17:28.346Z,80.0
2019-03-13T20:22:28.748Z,80.0
2019-03-13T20:27:28.566Z,80.1
2019-03-13T20:32:28.279Z,80.0
2019-03-13T20:37:27.836Z,80.4
2019-03-13T20:42:27.659Z,80.4
2019-03-13T20:47:29.054Z,80.5
2019-03-13T20:52:28.512Z,80.6
2019-03-13T20:57:28.067Z,80.9
2019-03-13T21:02:28.349Z,80.5
2019-03-13T21:07:29.080Z,80.2
2019-03-13T21:12:28.590Z,80.2
2019-03-13T21:17:28.132Z,80.3
2019-03-13T21:22:28.082Z,80.3
2019-03-13T21:27:28.299Z,80.3
2019-03-13T21:32:28.224Z,80.2
2019-03-13T21:37:28.595Z,80.2
2019-03-13T21:42:28.133Z,80.8
2019-03-13T21:47:28.607Z,81.4
2019-03-13T21:52:28.363Z,84.7
2019-03-13T21:57:28.178Z,84.6
2019-03-13T22:02:36.295Z,84.8
2019-03-13T22:07:28.772Z,85.6
2019-03-13T22:12:27.746Z,87.6
2019-03-13T22:17:29.010Z,88.2
2019-03-13T22:22:28.773Z,88.5
2019-03-13T22:27:27.911Z,88.6
2019-03-13T22:32:28.729Z,89.1
2019-03-13T22:37:29.206Z,89.4
2019-03-13T22:42:31.398Z,89.4
2019-03-13T22:47:28.226Z,89.4
2019-03-13T22:52:28.357Z,89.2
2019-03-13T22:57:28.770Z,89.5
2019-03-13T23:02:27.542Z,89.5
2019-03-13T23:07:28.626Z,89.4
2019-03-13T23:12:30.916Z,89.5
2019-03-13T23:22:47.970Z,89.3
2019-03-13T23:27:47.235Z,89.6
2019-03-13T23:32:46.869Z,90.0
2019-03-13T23:37:47.565Z,90.0
2019-03-13T23:42:47.208Z,90.0
2019-03-13T23:47:47.436Z,90.1
2019-03-13T23:52:46.658Z,90.1
2019-03-13T23:57:47.035Z,90.1
